createdAt,value
2018-05-11T00:01:54.004Z,45.93
2018-05-11T00:04:57.075Z,43.93
2018-05-11T00:08:00.929Z,51.07
2018-05-11T00:11:03.999Z,43.83
2018-05-11T00:14:07.082Z,44.60
2018-05-11T00:17:10.151Z,40.70
2018-05-11T00:20:14.006Z,40.57
2018-05-11T00:23:17.081Z,43.40
2018-05-11T00:26:20.175Z,37.53
2018-05-11T00:29:23.247Z,42.03
2018-05-11T00:32:26.380Z,35.90
2018-05-11T00:35:29.497Z,37.33
2018-05-11T00:38:32.540Z,33.17
2018-05-11T00:41:35.611Z,36.13
2018-05-11T00:44:38.710Z,31.53
2018-05-11T00:47:41.785Z,31.40
2018-05-11T00:50:44.866Z,35.20
2018-05-11T00:53:47.939Z,30.77
2018-05-11T00:56:51.799Z,34.77
2018-05-11T00:59:54.866Z,28.17
2018-05-11T01:02:57.962Z,30.43
2018-05-11T01:06:01.039Z,28.40
2018-05-11T01:09:04.139Z,30.43
2018-05-11T01:12:07.202Z,24.67
2018-05-11T01:15:10.293Z,27.57
2018-05-11T01:18:13.375Z,24.67
2018-05-11T01:21:17.235Z,23.13
2018-05-11T01:24:20.306Z,23.83
2018-05-11T01:27:23.401Z,23.23
2018-05-11T01:30:26.475Z,22.67
2018-05-11T01:33:29.557Z,27.47
2018-05-11T01:36:32.627Z,26.73
2018-05-11T01:39:36.482Z,24.43
2018-05-11T01:42:39.574Z,26.83
2018-05-11T01:45:42.650Z,27.50
2018-05-11T01:48:45.735Z,28.63
2018-05-11T01:51:48.828Z,27.47
2018-05-11T01:54:51.885Z,28.43
2018-05-11T01:57:55.745Z,28.87
2018-05-11T02:00:58.819Z,25.83
2018-05-11T02:04:01.911Z,25.77
2018-05-11T02:07:04.987Z,26.90
2018-05-11T02:10:08.076Z,33.30
2018-05-11T02:13:11.138Z,23.97
2018-05-11T02:16:14.990Z,26.17
2018-05-11T02:19:18.063Z,26.20
2018-05-11T02:22:21.388Z,35.83
2018-05-11T02:25:24.520Z,28.67
2018-05-11T02:28:28.380Z,31.33
2018-05-11T02:31:31.448Z,31.83
2018-05-11T02:34:34.540Z,30.83
2018-05-11T02:37:37.615Z,35.17
2018-05-11T02:40:40.707Z,35.77
2018-05-11T02:43:43.776Z,38.40
2018-05-11T02:46:47.627Z,39.37
2018-05-11T02:49:50.693Z,46.00
2018-05-11T02:52:53.791Z,38.77
2018-05-11T02:55:56.866Z,40.50
2018-05-11T02:58:59.968Z,40.30
2018-05-11T03:02:03.423Z,33.90
2018-05-11T03:05:06.506Z,36.33
2018-05-11T03:08:09.584Z,32.70
2018-05-11T03:11:12.683Z,33.67
2018-05-11T03:14:15.745Z,34.27
2018-05-11T03:17:18.833Z,32.00
2018-05-11T03:20:21.908Z,31.53
2018-05-11T03:23:25.005Z,29.70
2018-05-11T03:26:28.070Z,35.00
2018-05-11T03:29:31.162Z,36.37
2018-05-11T03:32:34.243Z,35.77
2018-05-11T03:35:38.104Z,37.13
2018-05-11T03:38:41.170Z,37.33
2018-05-11T03:41:44.267Z,35.60
2018-05-11T03:44:47.345Z,39.77
2018-05-11T03:47:50.429Z,39.87
2018-05-11T03:50:53.503Z,42.47
2018-05-11T03:53:56.593Z,44.83
2018-05-11T03:56:59.667Z,45.43
2018-05-11T04:00:03.565Z,44.53
2018-05-11T04:03:18.389Z,41.50
2018-05-11T04:06:33.258Z,43.27
2018-05-11T04:09:36.327Z,42.27
2018-05-11T04:12:39.610Z,45.83
2018-05-11T04:15:42.726Z,45.43
2018-05-11T04:18:46.529Z,45.53
2018-05-11T04:21:49.615Z,40.80
2018-05-11T04:24:52.699Z,37.40
2018-05-11T04:27:55.765Z,40.77
2018-05-11T04:30:58.862Z,36.43
2018-05-11T04:34:01.929Z,39.23
2018-05-11T04:37:05.777Z,40.50
2018-05-11T04:40:09.066Z,36.80
2018-05-11T04:43:12.163Z,33.33
2018-05-11T04:46:15.251Z,40.93
2018-05-11T04:49:18.390Z,35.43
2018-05-11T04:52:21.442Z,32.70
2018-05-11T04:55:24.540Z,32.47
2018-05-11T04:58:27.639Z,37.40
2018-05-11T05:01:30.734Z,40.03
2018-05-11T05:04:33.819Z,34.00
2018-05-11T05:07:36.907Z,40.70
2018-05-11T05:10:39.974Z,41.00
2018-05-11T05:13:43.054Z,37.57
2018-05-11T05:16:46.140Z,31.80
2018-05-11T05:19:49.220Z,30.73
2018-05-11T05:22:52.295Z,35.23
2018-05-11T05:25:56.147Z,37.30
2018-05-11T05:28:59.215Z,35.43
2018-05-11T05:32:02.303Z,36.93
2018-05-11T05:35:05.370Z,33.00
2018-05-11T05:38:08.456Z,37.70
2018-05-11T05:41:12.366Z,34.07
2018-05-11T05:44:16.222Z,34.30
2018-05-11T05:47:19.374Z,31.70
2018-05-11T05:50:23.221Z,32.27
2018-05-11T05:53:26.290Z,31.23
2018-05-11T05:56:29.452Z,32.90
2018-05-11T05:59:33.297Z,30.13
2018-05-11T06:02:36.385Z,28.17
2018-05-11T06:05:39.455Z,32.53
2018-05-11T06:08:42.560Z,31.47
2018-05-11T06:11:45.635Z,26.47
2018-05-11T06:14:49.495Z,27.07
2018-05-11T06:17:52.563Z,28.43
2018-05-11T06:20:55.653Z,31.13
2018-05-11T06:23:58.743Z,24.40
2018-05-11T06:27:01.827Z,28.20
2018-05-11T06:30:04.889Z,28.23
2018-05-11T06:33:07.986Z,32.10
2018-05-11T06:36:11.058Z,30.00
2018-05-11T06:39:14.919Z,31.30
2018-05-11T06:42:17.983Z,28.07
2018-05-11T06:45:21.079Z,30.50
2018-05-11T06:48:24.151Z,28.50
2018-05-11T06:51:27.257Z,29.57
2018-05-11T06:54:30.343Z,33.67
2018-05-11T06:57:33.442Z,34.30
2018-05-11T07:00:36.525Z,31.83
2018-05-11T07:03:39.607Z,36.40
2018-05-11T07:06:42.682Z,33.93
2018-05-11T07:09:45.776Z,31.80
2018-05-11T07:12:48.847Z,37.03
2018-05-11T07:15:52.715Z,38.40
2018-05-11T07:18:55.786Z,38.33
2018-05-11T07:21:58.868Z,38.57
2018-05-11T07:25:01.930Z,29.57
2018-05-11T07:28:05.031Z,32.93
2018-05-11T07:31:08.098Z,29.30
2018-05-11T07:34:11.970Z,30.07
2018-05-11T07:37:15.044Z,32.27
2018-05-11T07:40:18.142Z,29.67
2018-05-11T07:43:21.327Z,31.50
2018-05-11T07:46:24.307Z,33.83
2018-05-11T07:49:27.391Z,33.80
2018-05-11T07:52:30.480Z,43.20
2018-05-11T07:55:33.558Z,34.17
2018-05-11T07:58:36.646Z,35.57
2018-05-11T08:01:39.710Z,34.97
2018-05-11T08:04:43.572Z,30.33
2018-05-11T08:07:46.652Z,31.97
2018-05-11T08:10:49.748Z,36.40
2018-05-11T08:13:52.825Z,30.20
2018-05-11T08:16:55.916Z,31.57
2018-05-11T08:19:59.017Z,28.17
2018-05-11T08:23:02.115Z,34.23
2018-05-11T08:26:05.220Z,31.00
2018-05-11T08:29:08.323Z,32.67
2018-05-11T08:32:11.403Z,32.53
2018-05-11T08:35:14.503Z,34.17
2018-05-11T08:38:17.569Z,40.13
2018-05-11T08:41:20.664Z,32.57
2018-05-11T08:44:23.748Z,35.83
2018-05-11T08:47:26.834Z,36.23
2018-05-11T08:50:29.917Z,47.30
2018-05-11T08:53:33.010Z,41.17
2018-05-11T08:56:36.076Z,36.77
2018-05-11T08:59:39.367Z,32.63
2018-05-11T09:02:42.439Z,33.83
2018-05-11T09:05:45.524Z,36.10
2018-05-11T09:08:49.345Z,33.20
2018-05-11T09:11:52.433Z,35.13
2018-05-11T09:14:55.501Z,34.77
2018-05-11T09:17:59.362Z,35.30
2018-05-11T09:21:02.452Z,33.03
2018-05-11T09:24:05.550Z,34.57
2018-05-11T09:27:08.619Z,31.13
2018-05-11T09:30:11.726Z,28.80
2018-05-11T09:33:14.799Z,24.20
2018-05-11T09:36:17.892Z,23.10
2018-05-11T09:39:20.964Z,22.50
2018-05-11T09:42:24.049Z,28.47
2018-05-11T09:45:27.120Z,29.93
2018-05-11T09:48:30.971Z,25.70
2018-05-11T09:51:34.037Z,27.90
2018-05-11T09:54:37.129Z,36.47
2018-05-11T09:57:40.215Z,32.57
2018-05-11T10:00:43.339Z,33.17
2018-05-11T10:03:46.370Z,33.93
2018-05-11T10:06:50.218Z,29.33
2018-05-11T10:09:53.300Z,30.83
2018-05-11T10:12:56.395Z,29.60
2018-05-11T10:15:59.466Z,26.17
2018-05-11T10:19:02.559Z,26.60
2018-05-11T10:22:05.631Z,22.83
2018-05-11T10:25:09.495Z,23.83
2018-05-11T10:28:12.586Z,24.07
2018-05-11T10:31:15.679Z,26.73
2018-05-11T10:34:18.755Z,26.43
2018-05-11T10:37:21.851Z,20.80
2018-05-11T10:40:24.928Z,23.87
2018-05-11T10:43:28.900Z,23.30
2018-05-11T10:46:32.744Z,27.67
2018-05-11T10:49:35.834Z,24.43
2018-05-11T10:52:38.951Z,28.10
2018-05-11T10:55:42.040Z,26.10
2018-05-11T10:58:45.110Z,24.90
2018-05-11T11:01:48.200Z,23.27
2018-05-11T11:04:51.272Z,21.77
2018-05-11T11:07:54.349Z,23.77
2018-05-11T11:10:57.437Z,25.33
2018-05-11T11:14:00.532Z,21.63
2018-05-11T11:17:03.603Z,22.27
2018-05-11T11:20:06.757Z,22.97
2018-05-11T11:23:09.838Z,22.53
2018-05-11T11:26:12.934Z,17.10
2018-05-11T11:29:16.011Z,19.33
2018-05-11T11:32:19.107Z,19.63
2018-05-11T11:35:22.178Z,22.50
2018-05-11T11:38:25.294Z,21.90
2018-05-11T11:41:28.347Z,17.70
2018-05-11T11:44:31.439Z,19.10
2018-05-11T11:47:34.565Z,17.03
2018-05-11T11:50:37.603Z,16.87
2018-05-11T11:53:40.683Z,17.53
2018-05-11T11:56:43.804Z,20.43
2018-05-11T11:59:46.876Z,20.40
2018-05-11T12:02:49.971Z,19.90
2018-05-11T12:05:53.047Z,28.23
2018-05-11T12:08:56.226Z,22.17
2018-05-11T12:11:59.193Z,18.47
2018-05-11T12:15:02.292Z,18.73
2018-05-11T12:18:06.124Z,25.77
2018-05-11T12:21:09.673Z,20.80
2018-05-11T12:24:12.887Z,17.00
2018-05-11T12:27:16.746Z,20.43
2018-05-11T12:30:19.827Z,18.50
2018-05-11T12:33:22.920Z,18.57
2018-05-11T12:36:26.003Z,16.33
2018-05-11T12:39:29.095Z,17.33
2018-05-11T12:42:32.195Z,16.50
2018-05-11T12:45:35.373Z,16.83
2018-05-11T12:48:38.451Z,15.13
2018-05-11T12:51:41.568Z,16.37
2018-05-11T12:54:44.645Z,18.03
2018-05-11T12:57:47.755Z,21.47
2018-05-11T13:00:50.827Z,18.60
2018-05-11T13:03:53.907Z,18.50
2018-05-11T13:06:56.983Z,18.63
2018-05-11T13:10:00.063Z,18.97
2018-05-11T13:13:03.908Z,19.00
2018-05-11T13:16:07.003Z,18.10
2018-05-11T13:19:10.078Z,28.27
2018-05-11T13:22:13.406Z,19.33
2018-05-11T13:25:16.464Z,19.30
2018-05-11T13:28:19.564Z,19.00
2018-05-11T13:31:22.629Z,20.63
2018-05-11T13:34:25.724Z,23.50
2018-05-11T13:37:28.811Z,21.90
2018-05-11T13:40:31.908Z,21.50
2018-05-11T13:43:34.991Z,24.83
2018-05-11T13:46:38.079Z,19.83
2018-05-11T13:49:41.152Z,20.90
2018-05-11T13:52:44.386Z,25.17
2018-05-11T13:55:47.474Z,22.83
2018-05-11T13:58:50.567Z,22.57
2018-05-11T14:01:53.649Z,25.17
2018-05-11T14:04:56.747Z,22.77
2018-05-11T14:07:59.831Z,22.70
2018-05-11T14:11:03.527Z,29.10
2018-05-11T14:14:06.596Z,24.87
2018-05-11T14:17:09.693Z,24.73
2018-05-11T14:20:12.772Z,28.77
2018-05-11T14:23:16.657Z,28.33
2018-05-11T14:26:19.834Z,25.70
2018-05-11T14:29:22.910Z,23.70
2018-05-11T14:32:25.983Z,26.03
2018-05-11T14:35:29.091Z,23.13
2018-05-11T14:38:32.181Z,24.90
2018-05-11T14:41:35.271Z,27.10
2018-05-11T14:44:38.348Z,26.23
2018-05-11T14:47:41.446Z,27.77
2018-05-11T14:50:44.515Z,25.13
2018-05-11T14:53:47.608Z,23.63
2018-05-11T14:56:50.683Z,22.80
2018-05-11T14:59:53.771Z,19.93
2018-05-11T15:02:56.839Z,25.20
2018-05-11T15:06:00.707Z,21.67
2018-05-11T15:09:03.783Z,20.43
2018-05-11T15:12:06.878Z,23.33
2018-05-11T15:15:09.955Z,22.60
2018-05-11T15:18:13.043Z,19.87
2018-05-11T15:21:16.114Z,20.70
2018-05-11T15:24:19.212Z,23.40
2018-05-11T15:27:22.289Z,19.93
2018-05-11T15:30:25.369Z,23.33
2018-05-11T15:33:28.443Z,23.17
2018-05-11T15:36:32.328Z,21.63
2018-05-11T15:39:35.381Z,19.17
2018-05-11T15:42:38.510Z,18.90
2018-05-11T15:45:41.643Z,19.63
2018-05-11T15:48:44.684Z,22.50
2018-05-11T15:51:47.756Z,20.60
2018-05-11T15:54:51.236Z,20.33
2018-05-11T15:57:54.338Z,22.77
2018-05-11T16:00:57.422Z,19.70
2018-05-11T16:04:00.504Z,17.20
2018-05-11T16:07:04.251Z,17.37
2018-05-11T16:10:07.326Z,16.23
2018-05-11T16:13:10.554Z,17.63
2018-05-11T16:16:13.627Z,16.37
2018-05-11T16:19:16.729Z,17.43
2018-05-11T16:22:19.794Z,18.20
2018-05-11T16:25:22.927Z,47.20
2018-05-11T16:28:26.767Z,17.70
2018-05-11T16:31:29.849Z,16.90
2018-05-11T16:34:32.928Z,17.17
2018-05-11T16:37:36.014Z,16.63
2018-05-11T16:40:39.087Z,18.77
2018-05-11T16:43:42.946Z,16.73
2018-05-11T16:46:46.024Z,17.07
2018-05-11T16:49:49.110Z,17.23
2018-05-11T16:52:52.194Z,17.23
2018-05-11T16:55:55.293Z,19.13
2018-05-11T16:58:58.375Z,20.73
2018-05-11T17:02:01.477Z,16.90
2018-05-11T17:05:04.598Z,23.57
2018-05-11T17:08:07.697Z,16.63
2018-05-11T17:11:10.738Z,21.00
2018-05-11T17:14:13.836Z,19.10
2018-05-11T17:17:16.896Z,16.63
2018-05-11T17:20:19.998Z,18.70
2018-05-11T17:23:23.063Z,19.67
2018-05-11T17:26:26.942Z,13.80
2018-05-11T17:29:30.007Z,14.53
2018-05-11T17:32:33.111Z,14.87
2018-05-11T17:35:36.188Z,49.93
2018-05-11T17:38:39.296Z,15.17
2018-05-11T17:41:42.378Z,15.67
2018-05-11T17:44:45.463Z,12.27
2018-05-11T17:47:48.538Z,13.07
2018-05-11T17:50:51.707Z,12.67
2018-05-11T17:53:54.707Z,13.80
2018-05-11T17:56:57.896Z,13.27
2018-05-11T18:00:00.878Z,11.53
2018-05-11T18:03:04.007Z,12.70
2018-05-11T18:06:07.938Z,13.70
2018-05-11T18:09:11.030Z,12.47
2018-05-11T18:12:14.201Z,15.00
2018-05-11T18:15:17.989Z,13.53
2018-05-11T18:18:21.061Z,10.93
2018-05-11T18:21:24.155Z,11.50
2018-05-11T18:24:27.223Z,12.97
2018-05-11T18:27:30.404Z,14.00
2018-05-11T18:30:34.235Z,14.40
2018-05-11T18:33:38.185Z,11.93
2018-05-11T18:36:41.266Z,14.60
2018-05-11T18:39:44.385Z,12.83
2018-05-11T18:42:47.462Z,14.83
2018-05-11T18:45:50.541Z,14.47
2018-05-11T18:48:53.616Z,14.80
2018-05-11T18:51:56.711Z,13.57
2018-05-11T18:54:59.787Z,13.87
2018-05-11T18:58:02.879Z,19.20
2018-05-11T19:01:05.950Z,15.53
2018-05-11T19:04:09.043Z,16.27
2018-05-11T19:07:12.112Z,15.30
2018-05-11T19:10:15.962Z,14.47
2018-05-11T19:13:19.043Z,18.77
2018-05-11T19:16:22.129Z,16.93
2018-05-11T19:19:25.203Z,14.83
2018-05-11T19:22:28.334Z,14.93
2018-05-11T19:25:31.398Z,18.90
2018-05-11T19:28:34.487Z,16.37
2018-05-11T19:31:37.552Z,16.80
2018-05-11T19:34:40.647Z,19.87
2018-05-11T19:37:43.706Z,17.07
2018-05-11T19:40:47.571Z,16.67
2018-05-11T19:43:50.643Z,18.17
2018-05-11T19:46:53.739Z,18.37
2018-05-11T19:49:56.855Z,22.23
2018-05-11T19:52:59.949Z,19.10
2018-05-11T19:56:03.093Z,22.10
2018-05-11T19:59:06.126Z,20.43
2018-05-11T20:02:09.196Z,24.10
2018-05-11T20:05:12.282Z,19.87
2018-05-11T20:08:15.365Z,21.17
2018-05-11T20:11:18.640Z,19.47
2018-05-11T20:14:21.724Z,20.80
2018-05-11T20:17:25.587Z,22.70
2018-05-11T20:20:28.741Z,22.63
2018-05-11T20:23:31.746Z,25.37
2018-05-11T20:26:34.817Z,24.40
2018-05-11T20:29:37.915Z,22.27
2018-05-11T20:32:41.045Z,23.53
2018-05-11T20:35:44.084Z,24.50
2018-05-11T20:38:47.163Z,23.30
2018-05-11T20:41:51.014Z,22.97
2018-05-11T20:44:54.090Z,23.33
2018-05-11T20:47:57.174Z,24.77
2018-05-11T20:51:00.243Z,25.63
2018-05-11T20:54:03.343Z,27.17
2018-05-11T20:57:06.422Z,30.30
2018-05-11T21:00:09.531Z,26.07
2018-05-11T21:03:12.630Z,25.87
2018-05-11T21:06:15.739Z,27.33
2018-05-11T21:09:18.828Z,28.77
2018-05-11T21:12:22.037Z,27.97
2018-05-11T21:15:25.006Z,28.60
2018-05-11T21:18:28.102Z,27.00
2018-05-11T21:21:31.171Z,25.30
2018-05-11T21:24:34.251Z,29.03
2018-05-11T21:27:37.323Z,33.20
2018-05-11T21:30:40.546Z,30.20
2018-05-11T21:33:43.615Z,28.63
2018-05-11T21:36:46.714Z,31.20
2018-05-11T21:39:49.778Z,31.67
2018-05-11T21:42:52.871Z,29.60
2018-05-11T21:45:55.948Z,32.43
2018-05-11T21:48:59.800Z,31.43
2018-05-11T21:52:02.931Z,27.60
2018-05-11T21:55:06.023Z,33.50
2018-05-11T21:58:09.862Z,35.83
2018-05-11T22:01:12.958Z,32.70
2018-05-11T22:04:16.030Z,34.97
2018-05-11T22:07:19.122Z,33.77
2018-05-11T22:10:22.870Z,33.23
2018-05-11T22:13:26.006Z,45.63
2018-05-11T22:16:29.041Z,35.70
2018-05-11T22:19:32.130Z,35.27
2018-05-11T22:22:35.203Z,32.80
2018-05-11T22:25:38.289Z,35.23
2018-05-11T22:28:41.367Z,37.37
2018-05-11T22:31:44.454Z,35.97
2018-05-11T22:34:47.531Z,40.37
2018-05-11T22:37:51.386Z,38.27
2018-05-11T22:40:54.482Z,39.37
2018-05-11T22:43:57.579Z,45.63
2018-05-11T22:47:00.646Z,40.67
2018-05-11T22:50:03.751Z,43.57
2018-05-11T22:53:06.816Z,48.13
2018-05-11T22:56:09.914Z,37.77
2018-05-11T22:59:12.988Z,43.17
2018-05-11T23:02:16.075Z,42.83
2018-05-11T23:05:19.143Z,43.67
2018-05-11T23:08:22.995Z,51.20
2018-05-11T23:11:26.066Z,50.17
2018-05-11T23:14:29.171Z,47.77
2018-05-11T23:17:32.255Z,41.47
2018-05-11T23:20:35.355Z,46.67
2018-05-11T23:23:38.425Z,37.93
2018-05-11T23:26:41.511Z,48.70
2018-05-11T23:29:44.578Z,46.47
2018-05-11T23:32:48.434Z,45.30
2018-05-11T23:35:51.508Z,42.83
2018-05-11T23:38:54.608Z,57.53
2018-05-11T23:41:57.688Z,53.70
2018-05-11T23:45:00.777Z,59.13
2018-05-11T23:48:03.855Z,56.37
2018-05-11T23:51:06.950Z,57.30
2018-05-11T23:54:10.036Z,53.93
2018-05-11T23:57:13.134Z,48.57
